Time;durP1;ratioP1;P1;durP2;ratioP2;P2;SDS_P1;SDS_P2;PMS_P1;PMS_P2;Temp;Humidity;BMP_temperature;BMP_pressure;BME280_temperature;BME280_humidity;BME280_pressure;Samples;Min_cycle;Max_cycle;Signal;HPM_P1;HPM_P2
2024/03/24 00:00:44;;;;;;;2.00;0.87;;;;;;;;;;6274814;28;20120;-77
2024/03/24 00:03:45;;;;;;;2.25;0.93;;;;;;;;;;6274031;28;20048;-77
2024/03/24 00:06:46;;;;;;;1.60;0.77;;;;;;;;;;6274237;28;20382;-77
2024/03/24 00:09:46;;;;;;;1.93;0.87;;;;;;;;;;6274814;28;20021;-77
2024/03/24 00:12:47;;;;;;;2.20;1.20;;;;;;;;;;6274749;28;20458;-77
2024/03/24 00:15:48;;;;;;;2.70;1.33;;;;;;;;;;6275093;28;20067;-77
2024/03/24 00:18:48;;;;;;;2.37;1.20;;;;;;;;;;6273319;28;20056;-77
2024/03/24 00:21:49;;;;;;;2.27;1.30;;;;;;;;;;6273947;28;20582;-77
2024/03/24 00:24:49;;;;;;;;;;;;;;;;;;6274660;28;20017;-77
2024/03/24 00:27:50;;;;;;;2.30;1.25;;;;;;;;;;6274118;28;20376;-77
2024/03/24 00:30:50;;;;;;;2.53;1.10;;;;;;;;;;6274747;28;20052;-77
2024/03/24 00:33:50;;;;;;;2.53;1.10;;;;;;;;;;6271907;28;20473;-77
2024/03/24 00:36:50;;;;;;;1.57;1.00;;;;;;;;;;6272830;28;20494;-77
2024/03/24 00:39:52;;;;;;;1.23;0.80;;;;;;;;;;6274304;28;20457;-77
2024/03/24 00:42:53;;;;;;;1.25;0.80;;;;;;;;;;6273871;28;20051;-77
2024/03/24 00:45:53;;;;;;;2.03;1.00;;;;;;;;;;6274408;28;20037;-76
2024/03/24 00:48:53;;;;;;;1.40;0.87;;;;;;;;;;6272792;28;20025;-77
2024/03/24 00:51:53;;;;;;;1.00;0.67;;;;;;;;;;6272944;28;20369;-77
2024/03/24 00:54:54;;;;;;;1.70;0.60;;;;;;;;;;6274023;28;20457;-77
2024/03/24 00:57:54;;;;;;;1.03;0.57;;;;;;;;;;6274274;28;20048;-77
2024/03/24 01:00:56;;;;;;;1.30;0.70;;;;;;;;;;6273535;28;20169;-77
2024/03/24 01:03:56;;;;;;;0.85;0.55;;;;;;;;;;6271800;28;20048;-77
2024/03/24 01:06:56;;;;;;;1.43;0.70;;;;;;;;;;6272636;28;20035;-77
2024/03/24 01:09:57;;;;;;;0.70;0.53;;;;;;;;;;6273816;28;20429;-76
2024/03/24 01:12:57;;;;;;;1.40;0.90;;;;;;;;;;6282058;28;20428;-77
2024/03/24 01:15:57;;;;;;;0.83;0.70;;;;;;;;;;6280658;28;20020;-77
2024/03/24 01:18:58;;;;;;;0.83;0.50;;;;;;;;;;6271949;28;20480;-77
2024/03/24 01:21:58;;;;;;;0.77;0.67;;;;;;;;;;6271675;28;20025;-77
2024/03/24 01:24:59;;;;;;;1.07;0.70;;;;;;;;;;6273380;28;20108;-76
2024/03/24 01:27:59;;;;;;;1.13;0.80;;;;;;;;;;6272174;28;20027;-77
2024/03/24 01:31:00;;;;;;;0.70;0.70;;;;;;;;;;6272375;28;20029;-77
2024/03/24 01:34:00;;;;;;;0.50;0.40;;;;;;;;;;6271692;28;20013;-76
2024/03/24 01:37:00;;;;;;;0.60;0.57;;;;;;;;;;6253344;28;20050;-77
2024/03/24 01:40:00;;;;;;;0.90;0.67;;;;;;;;;;6255466;28;20469;-77
2024/03/24 01:43:01;;;;;;;2.10;0.80;;;;;;;;;;6272739;28;20025;-77
2024/03/24 01:46:01;;;;;;;0.73;0.60;;;;;;;;;;6255881;28;20477;-77
2024/03/24 01:49:02;;;;;;;1.77;0.80;;;;;;;;;;6271393;28;20035;-77
2024/03/24 01:52:06;;;;;;;0.80;0.60;;;;;;;;;;6253702;28;20083;-78
2024/03/24 01:55:07;;;;;;;0.73;0.70;;;;;;;;;;6255532;28;20028;-77
2024/03/24 01:58:07;;;;;;;0.70;0.60;;;;;;;;;;6272136;28;20086;-77
2024/03/24 02:01:08;;;;;;;1.10;0.60;;;;;;;;;;6272167;28;20494;-76
2024/03/24 02:04:09;;;;;;;1.40;0.50;;;;;;;;;;6260068;28;20457;-77
2024/03/24 02:07:09;;;;;;;0.57;0.57;;;;;;;;;;6268475;28;20428;-77
2024/03/24 02:10:09;;;;;;;0.50;0.50;;;;;;;;;;6272722;28;20027;-77
2024/03/24 02:13:09;;;;;;;0.63;0.50;;;;;;;;;;6272655;28;20465;-77
2024/03/24 02:16:10;;;;;;;0.63;0.60;;;;;;;;;;6272882;28;20480;-77
2024/03/24 02:19:10;;;;;;;0.80;0.70;;;;;;;;;;6270698;28;20474;-77
2024/03/24 02:22:10;;;;;;;1.17;0.70;;;;;;;;;;6272059;28;20404;-78
2024/03/24 02:25:11;;;;;;;0.50;0.50;;;;;;;;;;6272916;28;20063;-77
2024/03/24 02:28:11;;;;;;;0.60;0.50;;;;;;;;;;6272053;28;20051;-77
2024/03/24 02:31:11;;;;;;;1.53;0.60;;;;;;;;;;6254422;28;20384;-77
2024/03/24 02:34:11;;;;;;;1.63;0.70;;;;;;;;;;6270794;28;20070;-77
2024/03/24 02:37:12;;;;;;;0.53;0.50;;;;;;;;;;6272168;28;20029;-77
2024/03/24 02:40:12;;;;;;;0.47;0.43;;;;;;;;;;6275320;28;20025;-77
2024/03/24 02:43:12;;;;;;;1.13;0.60;;;;;;;;;;6276933;28;20485;-77
2024/03/24 02:46:13;;;;;;;0.50;0.50;;;;;;;;;;6265396;28;20022;-77
2024/03/24 02:49:13;;;;;;;0.40;0.40;;;;;;;;;;6275044;28;20385;-77
2024/03/24 02:52:13;;;;;;;0.50;0.50;;;;;;;;;;6275889;28;20571;-77
2024/03/24 02:55:13;;;;;;;0.60;0.60;;;;;;;;;;6277778;28;20021;-77
2024/03/24 02:58:14;;;;;;;0.70;0.50;;;;;;;;;;6276014;28;20029;-77
2024/03/24 03:01:14;;;;;;;0.50;0.50;;;;;;;;;;6276425;28;20477;-77
2024/03/24 03:04:15;;;;;;;0.43;0.43;;;;;;;;;;6274656;28;20025;-76
2024/03/24 03:07:15;;;;;;;0.83;0.40;;;;;;;;;;6275507;28;20024;-77
2024/03/24 03:10:16;;;;;;;0.47;0.40;;;;;;;;;;6276773;28;20021;-77
2024/03/24 03:13:16;;;;;;;1.43;0.50;;;;;;;;;;6276713;28;20033;-77
2024/03/24 03:16:16;;;;;;;0.60;0.40;;;;;;;;;;6276771;28;20021;-76
2024/03/24 03:19:17;;;;;;;0.70;0.40;;;;;;;;;;6273630;28;20395;-77
2024/03/24 03:22:17;;;;;;;1.03;0.60;;;;;;;;;;6275224;28;20492;-77
2024/03/24 03:25:17;;;;;;;0.67;0.50;;;;;;;;;;6276829;28;20025;-77
2024/03/24 03:28:18;;;;;;;1.17;0.60;;;;;;;;;;6275031;28;20526;-77
2024/03/24 03:31:18;;;;;;;0.65;0.60;;;;;;;;;;6275820;28;20359;-77
2024/03/24 03:34:19;;;;;;;0.60;0.40;;;;;;;;;;6274144;28;20508;-77
2024/03/24 03:37:22;;;;;;;0.63;0.40;;;;;;;;;;6274736;28;20358;-77
2024/03/24 03:40:22;;;;;;;0.47;0.47;;;;;;;;;;6275540;28;20024;-77
2024/03/24 03:43:23;;;;;;;0.50;0.50;;;;;;;;;;6275412;28;20538;-77
2024/03/24 03:46:23;;;;;;;0.47;0.47;;;;;;;;;;6287463;28;20461;-77
2024/03/24 03:49:23;;;;;;;0.40;0.40;;;;;;;;;;6298915;28;20829;-77
2024/03/24 03:52:29;;;;;;;0.30;0.30;;;;;;;;;;6285492;28;20469;-77
2024/03/24 03:55:30;;;;;;;0.40;0.30;;;;;;;;;;6275650;28;20397;-77
2024/03/24 03:58:30;;;;;;;0.30;0.30;;;;;;;;;;6274738;28;20056;-77
2024/03/24 04:01:30;;;;;;;0.47;0.33;;;;;;;;;;6275272;28;20021;-76
2024/03/24 04:04:30;;;;;;;0.47;0.40;;;;;;;;;;6294487;28;20028;-76
2024/03/24 04:07:31;;;;;;;0.50;0.30;;;;;;;;;;6281086;28;20028;-76
2024/03/24 04:10:31;;;;;;;0.63;0.40;;;;;;;;;;6282235;28;20033;-76
2024/03/24 04:13:31;;;;;;;0.60;0.30;;;;;;;;;;6284037;28;20035;-77
2024/03/24 04:16:31;;;;;;;0.30;0.30;;;;;;;;;;6274715;28;20067;-74
2024/03/24 04:19:32;;;;;;;0.33;0.30;;;;;;;;;;6273379;28;20048;-74
2024/03/24 04:22:33;;;;;;;1.40;0.30;;;;;;;;;;6260199;28;20462;-74
2024/03/24 04:25:33;;;;;;;0.32;0.30;;;;;;;;;;6249760;28;20021;-74
2024/03/24 04:28:33;;;;;;;0.37;0.33;;;;;;;;;;6249273;28;20037;-74
2024/03/24 04:31:33;;;;;;;0.20;0.20;;;;;;;;;;6271904;28;20017;-74
2024/03/24 04:34:34;;;;;;;0.37;0.37;;;;;;;;;;6272860;28;20453;-74
2024/03/24 04:37:34;;;;;;;0.93;0.40;;;;;;;;;;6277431;28;20487;-74
2024/03/24 04:40:35;;;;;;;0.88;0.47;;;;;;;;;;6274266;28;20024;-75
2024/03/24 04:43:36;;;;;;;0.80;0.30;;;;;;;;;;6272677;28;20037;-75
2024/03/24 04:46:36;;;;;;;0.40;0.40;;;;;;;;;;6274246;28;20021;-75
2024/03/24 04:49:36;;;;;;;0.30;0.30;;;;;;;;;;6272480;28;20041;-74
2024/03/24 04:52:37;;;;;;;0.30;0.30;;;;;;;;;;6273117;28;20104;-75
2024/03/24 04:55:37;;;;;;;0.30;0.30;;;;;;;;;;6275295;28;20048;-75
2024/03/24 04:58:37;;;;;;;1.73;0.50;;;;;;;;;;6273301;28;20057;-75
2024/03/24 05:01:37;;;;;;;0.40;0.40;;;;;;;;;;6273613;28;20022;-74
2024/03/24 05:04:38;;;;;;;0.87;0.50;;;;;;;;;;6253596;28;20461;-75
2024/03/24 05:07:38;;;;;;;0.50;0.40;;;;;;;;;;6272693;28;20025;-75
2024/03/24 05:10:40;;;;;;;0.50;0.50;;;;;;;;;;6274411;28;20025;-74
2024/03/24 05:13:41;;;;;;;0.30;0.30;;;;;;;;;;6273232;28;20024;-74
2024/03/24 05:16:41;;;;;;;0.37;0.30;;;;;;;;;;6255776;28;20060;-75
2024/03/24 05:19:41;;;;;;;0.50;0.50;;;;;;;;;;6271942;28;20025;-74
2024/03/24 05:22:42;;;;;;;1.07;0.50;;;;;;;;;;6272002;28;20457;-74
2024/03/24 05:25:42;;;;;;;0.77;0.50;;;;;;;;;;6273613;28;20541;-77
2024/03/24 05:28:42;;;;;;;0.60;0.50;;;;;;;;;;6287681;28;20501;-77
2024/03/24 05:31:46;;;;;;;0.40;0.40;;;;;;;;;;6298299;28;20033;-77
2024/03/24 05:34:47;;;;;;;0.60;0.47;;;;;;;;;;6273883;28;20115;-77
2024/03/24 05:37:47;;;;;;;0.40;0.40;;;;;;;;;;6271514;28;20025;-76
2024/03/24 05:40:55;;;;;;;0.40;0.37;;;;;;;;;;6273481;28;20115;-77
2024/03/24 05:43:56;;;;;;;0.35;0.30;;;;;;;;;;6272786;28;20079;-77
2024/03/24 05:46:56;;;;;;;0.30;0.30;;;;;;;;;;6272654;28;20021;-77
2024/03/24 05:49:56;;;;;;;0.23;0.23;;;;;;;;;;6271570;28;20469;-77
2024/03/24 05:52:56;;;;;;;0.60;0.30;;;;;;;;;;6272054;28;20579;-77
2024/03/24 05:56:00;;;;;;;1.30;0.37;;;;;;;;;;6273072;28;20017;-77
2024/03/24 05:59:00;;;;;;;0.38;0.35;;;;;;;;;;6272272;28;20060;-77
2024/03/24 06:02:00;;;;;;;0.30;0.30;;;;;;;;;;6281104;28;20461;-78
2024/03/24 06:05:00;;;;;;;0.37;0.37;;;;;;;;;;6272177;28;20036;-77
2024/03/24 06:08:01;;;;;;;0.30;0.30;;;;;;;;;;6271537;28;20036;-77
2024/03/24 06:11:02;;;;;;;1.00;0.30;;;;;;;;;;6272690;28;20424;-77
2024/03/24 06:14:02;;;;;;;0.28;0.28;;;;;;;;;;6273399;28;20362;-76
2024/03/24 06:17:02;;;;;;;0.70;0.40;;;;;;;;;;6276964;28;20033;-77
2024/03/24 06:20:06;;;;;;;0.40;0.30;;;;;;;;;;6277686;28;20036;-77
2024/03/24 06:23:06;;;;;;;0.20;0.20;;;;;;;;;;6276194;28;20025;-77
2024/03/24 06:26:07;;;;;;;0.23;0.20;;;;;;;;;;6277346;28;20082;-77
2024/03/24 06:29:07;;;;;;;0.20;0.20;;;;;;;;;;6276819;28;20457;-77
2024/03/24 06:32:07;;;;;;;0.30;0.20;;;;;;;;;;6275628;28;20024;-77
2024/03/24 06:35:11;;;;;;;1.00;0.30;;;;;;;;;;6277998;28;20032;-78
2024/03/24 06:38:11;;;;;;;0.20;0.20;;;;;;;;;;6275989;28;20460;-75
2024/03/24 06:41:11;;;;;;;0.53;0.30;;;;;;;;;;6277033;28;20123;-75
2024/03/24 06:44:13;;;;;;;0.40;0.30;;;;;;;;;;6277008;28;20082;-74
2024/03/24 06:47:13;;;;;;;0.20;0.17;;;;;;;;;;6257514;28;20025;-75
2024/03/24 06:50:13;;;;;;;0.50;0.40;;;;;;;;;;6276927;28;20047;-75
2024/03/24 06:53:14;;;;;;;0.20;0.20;;;;;;;;;;6276348;28;20020;-75
2024/03/24 06:56:15;;;;;;;0.40;0.20;;;;;;;;;;6259148;28;20048;-76
2024/03/24 06:59:15;;;;;;;0.47;0.23;;;;;;;;;;6275954;28;20048;-75
2024/03/24 07:02:15;;;;;;;0.77;0.20;;;;;;;;;;6274807;28;20017;-75
2024/03/24 07:05:15;;;;;;;0.23;0.20;;;;;;;;;;6276273;28;20481;-75
2024/03/24 07:08:16;;;;;;;0.57;0.27;;;;;;;;;;6275292;28;20476;-75
2024/03/24 07:11:16;;;;;;;0.57;0.20;;;;;;;;;;6276971;28;20021;-75
2024/03/24 07:14:16;;;;;;;0.87;0.20;;;;;;;;;;6275903;28;20020;-75
2024/03/24 07:17:16;;;;;;;0.30;0.13;;;;;;;;;;6256758;28;20590;-75
2024/03/24 07:20:17;;;;;;;0.30;0.20;;;;;;;;;;6275970;28;20473;-75
2024/03/24 07:23:17;;;;;;;0.40;0.30;;;;;;;;;;6256835;28;20071;-75
2024/03/24 07:26:17;;;;;;;0.43;0.30;;;;;;;;;;6264062;28;20086;-75
2024/03/24 07:29:17;;;;;;;0.20;0.20;;;;;;;;;;6275449;28;20086;-75
2024/03/24 07:32:18;;;;;;;0.20;0.20;;;;;;;;;;6274334;28;20548;-75
2024/03/24 07:35:18;;;;;;;1.03;0.40;;;;;;;;;;6275557;28;20496;-75
2024/03/24 07:38:18;;;;;;;0.37;0.37;;;;;;;;;;6275056;28;20461;-75
2024/03/24 07:41:18;;;;;;;0.30;0.30;;;;;;;;;;6275317;28;20470;-75
2024/03/24 07:44:19;;;;;;;0.30;0.30;;;;;;;;;;6275668;28;20101;-75
2024/03/24 07:47:24;;;;;;;0.20;0.20;;;;;;;;;;6274397;28;20028;-75
2024/03/24 07:50:24;;;;;;;0.45;0.30;;;;;;;;;;6275347;28;20500;-75
2024/03/24 07:53:25;;;;;;;0.30;0.30;;;;;;;;;;6274243;28;20017;-75
2024/03/24 07:56:25;;;;;;;0.30;0.20;;;;;;;;;;6257674;28;20036;-75
2024/03/24 07:59:25;;;;;;;0.20;0.20;;;;;;;;;;6274720;28;20056;-75
2024/03/24 08:02:25;;;;;;;0.60;0.30;;;;;;;;;;6290859;28;20028;-75
2024/03/24 08:05:26;;;;;;;0.60;0.30;;;;;;;;;;6275070;28;20032;-75
2024/03/24 08:08:26;;;;;;;0.80;0.50;;;;;;;;;;6273928;28;20028;-75
2024/03/24 08:11:26;;;;;;;0.33;0.33;;;;;;;;;;6274969;28;20021;-74
2024/03/24 08:14:26;;;;;;;0.40;0.30;;;;;;;;;;6274792;28;20021;-74
2024/03/24 08:17:27;;;;;;;1.83;0.60;;;;;;;;;;6274132;28;20021;-74
2024/03/24 08:20:28;;;;;;;0.67;0.40;;;;;;;;;;6274661;28;20473;-74
2024/03/24 08:23:28;;;;;;;0.70;0.50;;;;;;;;;;6274132;28;20024;-75
2024/03/24 08:26:28;;;;;;;0.80;0.60;;;;;;;;;;6274802;28;20028;-75
2024/03/24 08:29:28;;;;;;;2.67;1.07;;;;;;;;;;6274636;28;20032;-75
2024/03/24 08:32:28;;;;;;;1.70;0.90;;;;;;;;;;6272571;28;20032;-75
2024/03/24 08:35:29;;;;;;;1.43;0.73;;;;;;;;;;6286947;28;20028;-75
2024/03/24 08:38:29;;;;;;;0.90;0.60;;;;;;;;;;6273083;28;20029;-75
2024/03/24 08:41:30;;;;;;;0.90;0.60;;;;;;;;;;6265774;28;20029;-76
2024/03/24 08:44:30;;;;;;;0.90;0.57;;;;;;;;;;6266081;28;20025;-75
2024/03/24 08:47:30;;;;;;;0.90;0.40;;;;;;;;;;6272870;28;20104;-75
2024/03/24 08:50:30;;;;;;;0.97;0.30;;;;;;;;;;6273837;28;20484;-75
2024/03/24 08:53:31;;;;;;;0.50;0.40;;;;;;;;;;6289649;28;20021;-75
2024/03/24 08:56:31;;;;;;;0.70;0.30;;;;;;;;;;6274174;28;20035;-77
2024/03/24 08:59:31;;;;;;;0.20;0.20;;;;;;;;;;6273116;28;20059;-77
2024/03/24 09:02:31;;;;;;;0.20;0.20;;;;;;;;;;6272066;28;20029;-78
2024/03/24 09:05:32;;;;;;;0.23;0.23;;;;;;;;;;6273749;28;20036;-78
2024/03/24 09:08:33;;;;;;;0.80;0.30;;;;;;;;;;6273097;28;20036;-77
2024/03/24 09:11:33;;;;;;;0.60;0.20;;;;;;;;;;6256092;28;20338;-77
2024/03/24 09:14:33;;;;;;;0.30;0.30;;;;;;;;;;6273352;28;20020;-77
2024/03/24 09:17:34;;;;;;;0.50;0.30;;;;;;;;;;6272138;28;20453;-76
2024/03/24 09:20:35;;;;;;;0.70;0.30;;;;;;;;;;6273115;28;20047;-77
2024/03/24 09:23:35;;;;;;;0.50;0.20;;;;;;;;;;6272807;28;20271;-77
2024/03/24 09:26:36;;;;;;;0.10;0.10;;;;;;;;;;6274851;28;20025;-78
2024/03/24 09:29:36;;;;;;;0.30;0.30;;;;;;;;;;6273415;28;20013;-78
2024/03/24 09:32:36;;;;;;;0.17;0.10;;;;;;;;;;6272083;28;20099;-78
2024/03/24 09:35:36;;;;;;;0.20;0.20;;;;;;;;;;6272998;28;20029;-77
2024/03/24 09:38:38;;;;;;;0.30;0.30;;;;;;;;;;6271236;28;20104;-78
2024/03/24 09:41:42;;;;;;;0.60;0.22;;;;;;;;;;6273424;28;20024;-77
2024/03/24 09:44:43;;;;;;;0.73;0.30;;;;;;;;;;6277514;28;20033;-77
2024/03/24 09:47:45;;;;;;;0.20;0.20;;;;;;;;;;6296973;28;20055;-78
2024/03/24 09:50:45;;;;;;;2.47;1.25;;;;;;;;;;6284125;28;20025;-77
2024/03/24 09:53:46;;;;;;;1.53;0.80;;;;;;;;;;6272614;28;20025;-77
2024/03/24 09:56:46;;;;;;;0.83;0.40;;;;;;;;;;6272916;28;20051;-77
2024/03/24 09:59:48;;;;;;;0.83;0.60;;;;;;;;;;6273435;28;20486;-77
2024/03/24 10:02:51;;;;;;;0.25;0.20;;;;;;;;;;6272041;28;20440;-77
2024/03/24 10:05:52;;;;;;;0.25;0.20;;;;;;;;;;6254998;28;20488;-77
2024/03/24 10:08:52;;;;;;;0.30;0.20;;;;;;;;;;6272655;28;20029;-77
2024/03/24 10:11:53;;;;;;;0.15;0.15;;;;;;;;;;6273126;28;20521;-77
2024/03/24 10:14:53;;;;;;;0.30;0.20;;;;;;;;;;6273313;28;20508;-77
2024/03/24 10:18:06;;;;;;;0.30;0.30;;;;;;;;;;6287184;28;20484;-77
2024/03/24 10:21:10;;;;;;;0.10;0.10;;;;;;;;;;6295338;28;20409;-78
2024/03/24 10:24:10;;;;;;;0.10;0.10;;;;;;;;;;6247571;28;20170;-77
2024/03/24 10:27:12;;;;;;;0.33;0.30;;;;;;;;;;6246609;28;20044;-78
2024/03/24 10:30:13;;;;;;;0.93;0.20;;;;;;;;;;6259651;28;20059;-78
2024/03/24 10:33:13;;;;;;;0.20;0.20;;;;;;;;;;6271282;28;20491;-78
2024/03/24 10:36:13;;;;;;;0.30;0.20;;;;;;;;;;6272160;28;20112;-76
2024/03/24 10:39:13;;;;;;;0.20;0.20;;;;;;;;;;6271926;28;20114;-77
2024/03/24 10:42:16;;;;;;;0.10;0.10;;;;;;;;;;6272347;28;20483;-78
2024/03/24 10:45:24;;;;;;;0.10;0.10;;;;;;;;;;6271496;28;20021;-77
2024/03/24 10:48:31;;;;;;;0.20;0.20;;;;;;;;;;6270778;28;20087;-77
2024/03/24 10:51:31;;;;;;;1.15;0.68;;;;;;;;;;6278798;28;20021;-77
2024/03/24 10:54:32;;;;;;;0.80;0.40;;;;;;;;;;6271501;28;20029;-77
2024/03/24 10:57:33;;;;;;;0.70;0.55;;;;;;;;;;6271318;28;20033;-77
2024/03/24 11:00:33;;;;;;;0.40;0.28;;;;;;;;;;6254394;28;20067;-78
2024/03/24 11:03:34;;;;;;;0.20;0.20;;;;;;;;;;6275494;28;20116;-77
2024/03/24 11:06:35;;;;;;;0.20;0.20;;;;;;;;;;6275963;28;20102;-77
2024/03/24 11:09:35;;;;;;;0.20;0.20;;;;;;;;;;6275963;28;20272;-78
2024/03/24 11:12:36;;;;;;;0.20;0.20;;;;;;;;;;6276145;28;20032;-77
2024/03/24 11:15:36;;;;;;;0.50;0.50;;;;;;;;;;6276842;28;20017;-76
2024/03/24 11:18:37;;;;;;;0.47;0.40;;;;;;;;;;6274751;28;20033;-76
2024/03/24 11:21:40;;;;;;;0.20;0.20;;;;;;;;;;6275092;28;20043;-76
2024/03/24 11:24:40;;;;;;;0.30;0.22;;;;;;;;;;6281466;28;20020;-75
2024/03/24 11:27:44;;;;;;;0.40;0.30;;;;;;;;;;6295051;28;20017;-76
2024/03/24 11:30:44;;;;;;;0.10;0.10;;;;;;;;;;6275811;28;20035;-75
2024/03/24 11:33:45;;;;;;;0.23;0.17;;;;;;;;;;6256640;28;20355;-75
2024/03/24 11:36:49;;;;;;;0.55;0.20;;;;;;;;;;6275167;28;20469;-77
2024/03/24 11:39:49;;;;;;;0.20;0.20;;;;;;;;;;6275356;28;20102;-75
2024/03/24 11:42:53;;;;;;;0.10;0.10;;;;;;;;;;6275913;28;20016;-75
2024/03/24 11:46:01;;;;;;;0.10;0.10;;;;;;;;;;6257978;28;20055;-75
2024/03/24 11:49:02;;;;;;;0.28;0.28;;;;;;;;;;6274451;28;20028;-75
2024/03/24 11:52:02;;;;;;;0.10;0.10;;;;;;;;;;6274468;28;20025;-77
2024/03/24 11:55:05;;;;;;;0.20;0.20;;;;;;;;;;6275445;28;20051;-75
2024/03/24 11:58:05;;;;;;;0.20;0.20;;;;;;;;;;6275344;28;20048;-75
2024/03/24 12:01:07;;;;;;;0.20;0.20;;;;;;;;;;6275525;28;20068;-75
2024/03/24 12:04:07;;;;;;;0.22;0.20;;;;;;;;;;6273295;28;20017;-76
2024/03/24 12:07:08;;;;;;;0.20;0.20;;;;;;;;;;6256311;28;20124;-75
2024/03/24 12:10:08;;;;;;;0.10;0.10;;;;;;;;;;6275182;28;20064;-76
2024/03/24 12:13:08;;;;;;;0.23;0.10;;;;;;;;;;6274472;28;20048;-75
2024/03/24 12:16:13;;;;;;;0.40;0.40;;;;;;;;;;6274330;28;20021;-75
2024/03/24 12:19:13;;;;;;;0.30;0.30;;;;;;;;;;6273232;28;20041;-76
2024/03/24 12:22:13;;;;;;;0.32;0.30;;;;;;;;;;6273867;28;20028;-75
2024/03/24 12:25:14;;;;;;;0.20;0.20;;;;;;;;;;6274844;28;20488;-75
2024/03/24 12:28:15;;;;;;;0.13;0.13;;;;;;;;;;6274156;28;20109;-77
2024/03/24 12:31:16;;;;;;;0.50;0.15;;;;;;;;;;6274688;28;20054;-77
2024/03/24 12:34:20;;;;;;;0.13;0.13;;;;;;;;;;6273276;28;20021;-77
2024/03/24 12:37:20;;;;;;;0.20;0.20;;;;;;;;;;6273332;28;20033;-78
2024/03/24 12:40:21;;;;;;;0.10;0.10;;;;;;;;;;6274626;28;20082;-78
2024/03/24 12:43:28;;;;;;;0.10;0.10;;;;;;;;;;6274306;28;20032;-77
2024/03/24 12:46:31;;;;;;;0.10;0.10;;;;;;;;;;6274344;28;20025;-77
2024/03/24 12:49:32;;;;;;;0.08;0.05;;;;;;;;;;6273080;28;20032;-77
2024/03/24 12:52:32;;;;;;;0.10;0.10;;;;;;;;;;6273096;28;20128;-78
2024/03/24 12:55:34;;;;;;;0.10;0.10;;;;;;;;;;6274075;28;20029;-77
2024/03/24 12:58:36;;;;;;;0.10;0.10;;;;;;;;;;6273536;28;20053;-76
2024/03/24 13:01:36;;;;;;;0.10;0.10;;;;;;;;;;6274021;28;20107;-78
2024/03/24 13:04:37;;;;;;;0.20;0.10;;;;;;;;;;6272483;28;20411;-77
2024/03/24 13:07:37;;;;;;;0.23;0.20;;;;;;;;;;6273220;28;20473;-77
2024/03/24 13:10:37;;;;;;;0.70;0.40;;;;;;;;;;6273976;28;20533;-77
2024/03/24 13:13:39;;;;;;;0.60;0.40;;;;;;;;;;6273671;28;20016;-77
2024/03/24 13:16:43;;;;;;;0.50;0.40;;;;;;;;;;6273419;28;20033;-77
2024/03/24 13:19:49;;;;;;;0.75;0.30;;;;;;;;;;6271383;28;20489;-78
2024/03/24 13:22:50;;;;;;;0.40;0.30;;;;;;;;;;6270690;28;20105;-78
2024/03/24 13:25:54;;;;;;;0.30;0.30;;;;;;;;;;6273356;28;20100;-78
2024/03/24 13:28:55;;;;;;;0.20;0.20;;;;;;;;;;6273260;28;20389;-77
2024/03/24 13:31:55;;;;;;;0.63;0.10;;;;;;;;;;6273017;28;20032;-77
2024/03/24 13:34:55;;;;;;;0.40;0.30;;;;;;;;;;6271374;28;20032;-77
2024/03/24 13:38:03;;;;;;;0.43;0.40;;;;;;;;;;6271858;28;20103;-75
2024/03/24 13:41:03;;;;;;;0.20;0.10;;;;;;;;;;6273507;28;20032;-75
2024/03/24 13:44:16;;;;;;;0.20;0.20;;;;;;;;;;6273080;28;20028;-75
2024/03/24 13:47:36;;;;;;;0.40;0.40;;;;;;;;;;6271707;28;20020;-75
2024/03/24 13:50:37;;;;;;;1.52;1.00;;;;;;;;;;6272225;28;20037;-77
2024/03/24 13:53:39;;;;;;;1.00;0.70;;;;;;;;;;6272053;28;20036;-76
2024/03/24 13:56:40;;;;;;;0.50;0.30;;;;;;;;;;6272969;28;20033;-75
2024/03/24 13:59:40;;;;;;;0.25;0.25;;;;;;;;;;6272667;28;20056;-75
2024/03/24 14:02:40;;;;;;;0.20;0.20;;;;;;;;;;6271393;28;20539;-75
2024/03/24 14:05:40;;;;;;;0.20;0.20;;;;;;;;;;6272755;28;20350;-75
2024/03/24 14:08:41;;;;;;;0.10;0.10;;;;;;;;;;6270902;28;20474;-75
2024/03/24 14:11:41;;;;;;;0.40;0.30;;;;;;;;;;6273130;28;20480;-75
2024/03/24 14:14:47;;;;;;;0.20;0.20;;;;;;;;;;6273371;28;20477;-75
2024/03/24 14:17:52;;;;;;;0.45;0.30;;;;;;;;;;6270649;28;20013;-75
2024/03/24 14:21:12;;;;;;;0.40;0.30;;;;;;;;;;6272337;28;20071;-75
2024/03/24 14:24:33;;;;;;;0.40;0.30;;;;;;;;;;6271271;28;20033;-75
2024/03/24 14:27:34;;;;;;;0.30;0.30;;;;;;;;;;6272274;28;20350;-75
2024/03/24 14:30:34;;;;;;;0.50;0.50;;;;;;;;;;6272847;28;20029;-75
2024/03/24 14:33:34;;;;;;;0.40;0.40;;;;;;;;;;6277396;28;20024;-75
2024/03/24 14:36:50;;;;;;;0.87;0.30;;;;;;;;;;6275205;28;20096;-75
2024/03/24 14:39:51;;;;;;;0.30;0.30;;;;;;;;;;6276948;28;20039;-75
2024/03/24 14:43:00;;;;;;;0.50;0.23;;;;;;;;;;6276910;28;20458;-75
2024/03/24 14:46:06;;;;;;;0.82;0.63;;;;;;;;;;6277136;28;20021;-75
2024/03/24 14:49:06;;;;;;;0.93;0.70;;;;;;;;;;6284665;28;20029;-75
2024/03/24 14:52:07;;;;;;;0.47;0.40;;;;;;;;;;6282960;28;20024;-75
2024/03/24 14:55:07;;;;;;;0.20;0.20;;;;;;;;;;6302094;28;20027;-75
2024/03/24 14:58:07;;;;;;;0.40;0.23;;;;;;;;;;6290597;28;20516;-75
2024/03/24 15:01:08;;;;;;;0.20;0.20;;;;;;;;;;6276872;28;20029;-75
2024/03/24 15:04:11;;;;;;;0.20;0.20;;;;;;;;;;6274742;28;20384;-76
2024/03/24 15:07:11;;;;;;;0.10;0.10;;;;;;;;;;6276146;28;20025;-75
2024/03/24 15:10:11;;;;;;;0.20;0.20;;;;;;;;;;6276440;28;20021;-75
2024/03/24 15:13:11;;;;;;;0.30;0.20;;;;;;;;;;6276065;28;20104;-74
2024/03/24 15:16:12;;;;;;;0.30;0.30;;;;;;;;;;6276202;28;20036;-75
2024/03/24 15:19:12;;;;;;;0.30;0.20;;;;;;;;;;6256498;28;20157;-75
2024/03/24 15:22:12;;;;;;;0.30;0.30;;;;;;;;;;6276114;28;20021;-75
2024/03/24 15:25:13;;;;;;;0.40;0.20;;;;;;;;;;6258786;28;20121;-75
2024/03/24 15:28:13;;;;;;;0.20;0.20;;;;;;;;;;6275622;28;20520;-75
2024/03/24 15:31:13;;;;;;;0.20;0.20;;;;;;;;;;6276195;28;20366;-75
2024/03/24 15:34:13;;;;;;;0.10;0.10;;;;;;;;;;6273655;28;20501;-75
2024/03/24 15:37:14;;;;;;;0.23;0.20;;;;;;;;;;6274568;28;20052;-75
2024/03/24 15:40:14;;;;;;;0.43;0.20;;;;;;;;;;6276478;28;20049;-75
2024/03/24 15:43:17;;;;;;;0.10;0.10;;;;;;;;;;6275544;28;20067;-75
2024/03/24 15:46:19;;;;;;;0.60;0.20;;;;;;;;;;6275416;28;20024;-75
2024/03/24 15:49:20;;;;;;;0.10;0.10;;;;;;;;;;6273828;28;20031;-75
2024/03/24 15:52:21;;;;;;;0.15;0.10;;;;;;;;;;6274695;28;20025;-75
2024/03/24 15:55:22;;;;;;;0.47;0.30;;;;;;;;;;6275692;28;20021;-75
2024/03/24 15:58:23;;;;;;;0.20;0.15;;;;;;;;;;6275193;28;20054;-75
2024/03/24 16:01:33;;;;;;;0.10;0.10;;;;;;;;;;6275257;28;20028;-75
2024/03/24 16:04:33;;;;;;;0.15;0.13;;;;;;;;;;6273882;28;20064;-74
2024/03/24 16:07:33;;;;;;;0.10;0.10;;;;;;;;;;6274240;28;20537;-76
2024/03/24 16:10:36;;;;;;;0.10;0.10;;;;;;;;;;6274826;28;20553;-77
2024/03/24 16:13:44;;;;;;;0.10;0.10;;;;;;;;;;6275283;28;20465;-77
2024/03/24 16:16:44;;;;;;;0.10;0.10;;;;;;;;;;6275128;28;20101;-77
2024/03/24 16:19:45;;;;;;;0.20;0.10;;;;;;;;;;6273318;28;20029;-77
2024/03/24 16:22:46;;;;;;;0.10;0.10;;;;;;;;;;6261464;28;20374;-77
2024/03/24 16:25:46;;;;;;;0.43;0.20;;;;;;;;;;6273535;28;20425;-77
2024/03/24 16:28:47;;;;;;;0.60;0.40;;;;;;;;;;6274894;28;20025;-77
2024/03/24 16:31:47;;;;;;;0.52;0.22;;;;;;;;;;6275005;28;20017;-77
2024/03/24 16:34:47;;;;;;;0.20;0.20;;;;;;;;;;6273171;28;20025;-77
2024/03/24 16:37:48;;;;;;;0.20;0.20;;;;;;;;;;6273365;28;20032;-77
2024/03/24 16:40:48;;;;;;;0.53;0.20;;;;;;;;;;6274434;28;20481;-77
2024/03/24 16:43:48;;;;;;;0.10;0.10;;;;;;;;;;6274223;28;20488;-77
2024/03/24 16:46:49;;;;;;;0.20;0.20;;;;;;;;;;6274302;28;20469;-77
2024/03/24 16:49:50;;;;;;;0.73;0.13;;;;;;;;;;6292906;28;20465;-77
2024/03/24 16:52:50;;;;;;;0.17;0.10;;;;;;;;;;6273651;28;20059;-77
2024/03/24 16:55:51;;;;;;;0.77;0.63;;;;;;;;;;6274185;28;20075;-76
2024/03/24 16:58:51;;;;;;;0.85;0.68;;;;;;;;;;6273563;28;20063;-77
2024/03/24 17:01:52;;;;;;;0.40;0.40;;;;;;;;;;6273832;28;20033;-77
2024/03/24 17:04:52;;;;;;;0.20;0.20;;;;;;;;;;6275532;28;20028;-77
2024/03/24 17:07:52;;;;;;;0.20;0.20;;;;;;;;;;6243045;28;20029;-77
2024/03/24 17:10:52;;;;;;;0.30;0.20;;;;;;;;;;6274078;28;20381;-77
2024/03/24 17:13:53;;;;;;;0.20;0.20;;;;;;;;;;6273663;28;20381;-77
2024/03/24 17:16:53;;;;;;;0.43;0.20;;;;;;;;;;6273984;28;20025;-77
2024/03/24 17:19:53;;;;;;;0.10;0.10;;;;;;;;;;6271537;28;20461;-77
2024/03/24 17:22:54;;;;;;;0.20;0.20;;;;;;;;;;6272436;28;20075;-77
2024/03/24 17:25:54;;;;;;;0.20;0.20;;;;;;;;;;6255860;28;20021;-77
2024/03/24 17:28:56;;;;;;;0.60;0.30;;;;;;;;;;6273535;28;20017;-77
2024/03/24 17:31:56;;;;;;;0.20;0.20;;;;;;;;;;6272856;28;20017;-77
2024/03/24 17:34:56;;;;;;;0.30;0.20;;;;;;;;;;6272174;28;20401;-77
2024/03/24 17:37:56;;;;;;;0.20;0.20;;;;;;;;;;6272006;28;20031;-77
2024/03/24 17:40:57;;;;;;;0.43;0.40;;;;;;;;;;6297601;28;20063;-77
2024/03/24 17:43:58;;;;;;;0.20;0.20;;;;;;;;;;6297992;28;20035;-76
2024/03/24 17:46:59;;;;;;;0.22;0.20;;;;;;;;;;6286347;28;20252;-77
2024/03/24 17:49:59;;;;;;;0.30;0.20;;;;;;;;;;6272205;28;20024;-77
2024/03/24 17:52:59;;;;;;;0.50;0.30;;;;;;;;;;6254092;28;20013;-77
2024/03/24 17:55:59;;;;;;;0.20;0.20;;;;;;;;;;6273814;28;20150;-77
2024/03/24 17:59:00;;;;;;;0.40;0.30;;;;;;;;;;6272454;28;20041;-77
2024/03/24 18:02:01;;;;;;;0.47;0.33;;;;;;;;;;6271703;28;20025;-77
2024/03/24 18:05:01;;;;;;;0.73;0.30;;;;;;;;;;6272471;28;20013;-77